sensor_id;sensor_type;location;lat;lon;timestamp;P1;durP1;ratioP1;P2;durP2;ratioP2
253;SDS011;590;48.772;8.846;2024-01-06T00:00:50;9.57;;;9.07;;
253;SDS011;590;48.772;8.846;2024-01-06T00:03:19;7.18;;;6.78;;
253;SDS011;590;48.772;8.846;2024-01-06T00:05:47;9.48;;;8.57;;
253;SDS011;590;48.772;8.846;2024-01-06T00:08:15;8.80;;;7.75;;
253;SDS011;590;48.772;8.846;2024-01-06T00:10:43;7.38;;;6.95;;
253;SDS011;590;48.772;8.846;2024-01-06T00:13:12;6.20;;;5.90;;
253;SDS011;590;48.772;8.846;2024-01-06T00:15:41;5.82;;;5.43;;
253;SDS011;590;48.772;8.846;2024-01-06T00:18:09;6.40;;;6.00;;
253;SDS011;590;48.772;8.846;2024-01-06T00:20:37;7.15;;;5.82;;
253;SDS011;590;48.772;8.846;2024-01-06T00:23:05;7.53;;;7.13;;
253;SDS011;590;48.772;8.846;2024-01-06T00:25:36;6.63;;;5.25;;
253;SDS011;590;48.772;8.846;2024-01-06T00:28:05;6.25;;;5.25;;
253;SDS011;590;48.772;8.846;2024-01-06T00:30:34;5.30;;;5.05;;
253;SDS011;590;48.772;8.846;2024-01-06T00:33:02;5.35;;;5.03;;
253;SDS011;590;48.772;8.846;2024-01-06T00:35:31;5.25;;;4.95;;
253;SDS011;590;48.772;8.846;2024-01-06T00:37:59;5.07;;;4.78;;
253;SDS011;590;48.772;8.846;2024-01-06T00:40:27;4.40;;;4.10;;
253;SDS011;590;48.772;8.846;2024-01-06T00:42:55;4.75;;;4.45;;
253;SDS011;590;48.772;8.846;2024-01-06T00:45:23;6.35;;;5.97;;
253;SDS011;590;48.772;8.846;2024-01-06T00:47:53;7.35;;;6.95;;
253;SDS011;590;48.772;8.846;2024-01-06T00:50:21;7.60;;;7.20;;
253;SDS011;590;48.772;8.846;2024-01-06T00:52:49;7.57;;;7.18;;
253;SDS011;590;48.772;8.846;2024-01-06T00:55:18;9.07;;;8.57;;
253;SDS011;590;48.772;8.846;2024-01-06T00:57:47;9.02;;;8.52;;
253;SDS011;590;48.772;8.846;2024-01-06T01:00:15;8.98;;;8.48;;
253;SDS011;590;48.772;8.846;2024-01-06T01:02:43;9.18;;;8.70;;
253;SDS011;590;48.772;8.846;2024-01-06T01:05:13;9.80;;;9.30;;
253;SDS011;590;48.772;8.846;2024-01-06T01:07:41;9.68;;;9.18;;
253;SDS011;590;48.772;8.846;2024-01-06T01:10:09;10.02;;;9.52;;
253;SDS011;590;48.772;8.846;2024-01-06T01:12:37;10.15;;;9.65;;
253;SDS011;590;48.772;8.846;2024-01-06T01:15:06;9.95;;;9.45;;
253;SDS011;590;48.772;8.846;2024-01-06T01:17:34;9.10;;;8.60;;
253;SDS011;590;48.772;8.846;2024-01-06T01:20:03;9.05;;;8.55;;
253;SDS011;590;48.772;8.846;2024-01-06T01:22:34;8.50;;;8.00;;
253;SDS011;590;48.772;8.846;2024-01-06T01:25:02;9.23;;;8.73;;
253;SDS011;590;48.772;8.846;2024-01-06T01:27:34;10.23;;;9.73;;
253;SDS011;590;48.772;8.846;2024-01-06T01:30:02;10.88;;;10.27;;
253;SDS011;590;48.772;8.846;2024-01-06T01:32:32;10.32;;;9.82;;
253;SDS011;590;48.772;8.846;2024-01-06T01:35:00;9.75;;;9.27;;
253;SDS011;590;48.772;8.846;2024-01-06T01:37:29;10.55;;;10.00;;
253;SDS011;590;48.772;8.846;2024-01-06T01:39:59;10.20;;;9.70;;
253;SDS011;590;48.772;8.846;2024-01-06T01:42:27;10.75;;;9.07;;
253;SDS011;590;48.772;8.846;2024-01-06T01:44:55;8.30;;;7.90;;
253;SDS011;590;48.772;8.846;2024-01-06T01:47:23;7.90;;;7.50;;
253;SDS011;590;48.772;8.846;2024-01-06T01:49:52;8.88;;;8.38;;
253;SDS011;590;48.772;8.846;2024-01-06T01:52:21;8.20;;;7.80;;
253;SDS011;590;48.772;8.846;2024-01-06T01:54:50;7.05;;;6.65;;
253;SDS011;590;48.772;8.846;2024-01-06T01:57:21;5.70;;;5.43;;
253;SDS011;590;48.772;8.846;2024-01-06T01:59:52;5.57;;;5.25;;
253;SDS011;590;48.772;8.846;2024-01-06T02:02:21;6.68;;;6.30;;
253;SDS011;590;48.772;8.846;2024-01-06T02:04:50;7.32;;;6.65;;
253;SDS011;590;48.772;8.846;2024-01-06T02:07:18;6.68;;;6.25;;
253;SDS011;590;48.772;8.846;2024-01-06T02:09:46;5.53;;;5.22;;
253;SDS011;590;48.772;8.846;2024-01-06T02:12:14;4.72;;;4.40;;
253;SDS011;590;48.772;8.846;2024-01-06T02:14:44;5.15;;;3.90;;
253;SDS011;590;48.772;8.846;2024-01-06T02:17:12;4.00;;;2.85;;
253;SDS011;590;48.772;8.846;2024-01-06T02:19:40;2.88;;;2.67;;
253;SDS011;590;48.772;8.846;2024-01-06T02:22:09;3.53;;;3.33;;
253;SDS011;590;48.772;8.846;2024-01-06T02:24:37;5.78;;;5.47;;
253;SDS011;590;48.772;8.846;2024-01-06T02:27:05;5.55;;;5.20;;
253;SDS011;590;48.772;8.846;2024-01-06T02:29:33;4.45;;;4.15;;
253;SDS011;590;48.772;8.846;2024-01-06T02:32:01;4.30;;;4.03;;
253;SDS011;590;48.772;8.846;2024-01-06T02:34:30;3.97;;;3.78;;
253;SDS011;590;48.772;8.846;2024-01-06T02:36:59;3.20;;;3.00;;
253;SDS011;590;48.772;8.846;2024-01-06T02:39:28;4.22;;;3.72;;
253;SDS011;590;48.772;8.846;2024-01-06T02:41:56;4.70;;;4.05;;
253;SDS011;590;48.772;8.846;2024-01-06T02:44:27;3.42;;;3.25;;
253;SDS011;590;48.772;8.846;2024-01-06T02:46:55;4.38;;;3.67;;
253;SDS011;590;48.772;8.846;2024-01-06T02:49:23;4.00;;;3.80;;
253;SDS011;590;48.772;8.846;2024-01-06T02:51:52;4.05;;;3.72;;
253;SDS011;590;48.772;8.846;2024-01-06T02:54:20;4.13;;;3.88;;
253;SDS011;590;48.772;8.846;2024-01-06T02:56:49;3.72;;;3.35;;
253;SDS011;590;48.772;8.846;2024-01-06T02:59:17;3.50;;;3.30;;
253;SDS011;590;48.772;8.846;2024-01-06T03:01:45;3.17;;;2.33;;
253;SDS011;590;48.772;8.846;2024-01-06T03:04:13;3.75;;;2.10;;
253;SDS011;590;48.772;8.846;2024-01-06T03:06:44;3.33;;;1.83;;
253;SDS011;590;48.772;8.846;2024-01-06T03:09:18;3.17;;;2.40;;
253;SDS011;590;48.772;8.846;2024-01-06T03:11:46;2.95;;;2.75;;
253;SDS011;590;48.772;8.846;2024-01-06T03:14:17;3.60;;;2.80;;
253;SDS011;590;48.772;8.846;2024-01-06T03:16:45;2.78;;;2.58;;
253;SDS011;590;48.772;8.846;2024-01-06T03:19:13;1.90;;;1.85;;
253;SDS011;590;48.772;8.846;2024-01-06T03:21:42;2.63;;;1.63;;
253;SDS011;590;48.772;8.846;2024-01-06T03:24:10;3.72;;;1.88;;
253;SDS011;590;48.772;8.846;2024-01-06T03:26:38;2.65;;;2.53;;
253;SDS011;590;48.772;8.846;2024-01-06T03:29:06;2.45;;;2.28;;
253;SDS011;590;48.772;8.846;2024-01-06T03:31:35;3.10;;;2.90;;
253;SDS011;590;48.772;8.846;2024-01-06T03:34:03;3.08;;;2.90;;
253;SDS011;590;48.772;8.846;2024-01-06T03:36:31;3.63;;;2.95;;
253;SDS011;590;48.772;8.846;2024-01-06T03:38:59;3.58;;;3.20;;
253;SDS011;590;48.772;8.846;2024-01-06T03:41:27;4.18;;;2.08;;
253;SDS011;590;48.772;8.846;2024-01-06T03:43:55;1.88;;;1.77;;
253;SDS011;590;48.772;8.846;2024-01-06T03:46:24;2.65;;;2.30;;
253;SDS011;590;48.772;8.846;2024-01-06T03:48:53;2.88;;;1.95;;
253;SDS011;590;48.772;8.846;2024-01-06T03:51:21;3.38;;;2.17;;
253;SDS011;590;48.772;8.846;2024-01-06T03:53:49;1.80;;;1.73;;
253;SDS011;590;48.772;8.846;2024-01-06T03:56:17;1.63;;;1.58;;
253;SDS011;590;48.772;8.846;2024-01-06T03:58:45;2.50;;;1.70;;
253;SDS011;590;48.772;8.846;2024-01-06T04:01:14;3.30;;;1.42;;
253;SDS011;590;48.772;8.846;2024-01-06T04:03:44;3.97;;;1.95;;
253;SDS011;590;48.772;8.846;2024-01-06T04:06:14;2.25;;;1.52;;
253;SDS011;590;48.772;8.846;2024-01-06T04:08:42;3.30;;;1.80;;
253;SDS011;590;48.772;8.846;2024-01-06T04:11:10;3.20;;;2.00;;
253;SDS011;590;48.772;8.846;2024-01-06T04:13:38;1.52;;;1.50;;
253;SDS011;590;48.772;8.846;2024-01-06T04:16:06;1.92;;;1.67;;
253;SDS011;590;48.772;8.846;2024-01-06T04:18:34;2.15;;;1.60;;
253;SDS011;590;48.772;8.846;2024-01-06T04:21:03;1.25;;;1.23;;
253;SDS011;590;48.772;8.846;2024-01-06T04:23:33;3.65;;;1.58;;
253;SDS011;590;48.772;8.846;2024-01-06T04:26:01;2.42;;;1.75;;
253;SDS011;590;48.772;8.846;2024-01-06T04:28:30;1.33;;;1.23;;
253;SDS011;590;48.772;8.846;2024-01-06T04:30:58;1.75;;;1.50;;
253;SDS011;590;48.772;8.846;2024-01-06T04:33:27;3.13;;;1.90;;
253;SDS011;590;48.772;8.846;2024-01-06T04:35:55;2.17;;;1.60;;
253;SDS011;590;48.772;8.846;2024-01-06T04:38:24;2.85;;;1.60;;
253;SDS011;590;48.772;8.846;2024-01-06T04:40:53;2.67;;;1.80;;
253;SDS011;590;48.772;8.846;2024-01-06T04:43:21;2.00;;;1.88;;
253;SDS011;590;48.772;8.846;2024-01-06T04:45:49;4.65;;;2.60;;
253;SDS011;590;48.772;8.846;2024-01-06T04:48:18;2.13;;;1.98;;
253;SDS011;590;48.772;8.846;2024-01-06T04:50:46;3.05;;;2.15;;
253;SDS011;590;48.772;8.846;2024-01-06T04:53:14;4.45;;;3.28;;
253;SDS011;590;48.772;8.846;2024-01-06T04:55:42;3.80;;;2.72;;
253;SDS011;590;48.772;8.846;2024-01-06T04:58:11;2.33;;;1.95;;
253;SDS011;590;48.772;8.846;2024-01-06T05:00:40;3.00;;;2.53;;
253;SDS011;590;48.772;8.846;2024-01-06T05:03:08;3.65;;;2.28;;
253;SDS011;590;48.772;8.846;2024-01-06T05:05:36;2.88;;;1.80;;
253;SDS011;590;48.772;8.846;2024-01-06T05:08:04;3.58;;;1.65;;
253;SDS011;590;48.772;8.846;2024-01-06T05:10:33;5.45;;;2.80;;
253;SDS011;590;48.772;8.846;2024-01-06T05:13:01;3.33;;;2.03;;
253;SDS011;590;48.772;8.846;2024-01-06T05:15:30;1.42;;;1.35;;
253;SDS011;590;48.772;8.846;2024-01-06T05:17:59;2.00;;;1.50;;
253;SDS011;590;48.772;8.846;2024-01-06T05:20:27;1.65;;;1.55;;
253;SDS011;590;48.772;8.846;2024-01-06T05:22:55;2.15;;;1.90;;
253;SDS011;590;48.772;8.846;2024-01-06T05:25:23;2.28;;;1.65;;
253;SDS011;590;48.772;8.846;2024-01-06T05:27:51;2.65;;;1.88;;
253;SDS011;590;48.772;8.846;2024-01-06T05:30:19;2.88;;;1.90;;
253;SDS011;590;48.772;8.846;2024-01-06T05:32:49;4.40;;;1.90;;
253;SDS011;590;48.772;8.846;2024-01-06T05:35:17;2.45;;;2.03;;
253;SDS011;590;48.772;8.846;2024-01-06T05:37:45;7.38;;;1.90;;
253;SDS011;590;48.772;8.846;2024-01-06T05:40:14;2.17;;;2.00;;
253;SDS011;590;48.772;8.846;2024-01-06T05:42:42;1.73;;;1.60;;
253;SDS011;590;48.772;8.846;2024-01-06T05:45:10;2.40;;;1.50;;
253;SDS011;590;48.772;8.846;2024-01-06T05:47:39;3.08;;;1.70;;
253;SDS011;590;48.772;8.846;2024-01-06T05:50:09;3.15;;;1.83;;
253;SDS011;590;48.772;8.846;2024-01-06T05:52:37;2.60;;;1.88;;
253;SDS011;590;48.772;8.846;2024-01-06T05:55:05;2.17;;;2.00;;
253;SDS011;590;48.772;8.846;2024-01-06T05:57:34;1.95;;;1.85;;
253;SDS011;590;48.772;8.846;2024-01-06T06:00:02;2.20;;;2.00;;
253;SDS011;590;48.772;8.846;2024-01-06T06:02:31;1.50;;;1.40;;
253;SDS011;590;48.772;8.846;2024-01-06T06:04:59;1.52;;;1.50;;
253;SDS011;590;48.772;8.846;2024-01-06T06:07:28;1.95;;;1.85;;
253;SDS011;590;48.772;8.846;2024-01-06T06:09:56;1.85;;;1.75;;
253;SDS011;590;48.772;8.846;2024-01-06T06:12:25;2.00;;;1.60;;
253;SDS011;590;48.772;8.846;2024-01-06T06:14:53;1.50;;;1.40;;
253;SDS011;590;48.772;8.846;2024-01-06T06:17:22;1.58;;;1.50;;
253;SDS011;590;48.772;8.846;2024-01-06T06:19:52;1.55;;;1.10;;
253;SDS011;590;48.772;8.846;2024-01-06T06:22:20;1.73;;;1.60;;
253;SDS011;590;48.772;8.846;2024-01-06T06:24:50;3.00;;;2.55;;
253;SDS011;590;48.772;8.846;2024-01-06T06:27:18;2.90;;;2.70;;
253;SDS011;590;48.772;8.846;2024-01-06T06:29:46;1.85;;;1.70;;
253;SDS011;590;48.772;8.846;2024-01-06T06:32:14;2.33;;;2.13;;
253;SDS011;590;48.772;8.846;2024-01-06T06:34:42;1.92;;;1.63;;
253;SDS011;590;48.772;8.846;2024-01-06T06:37:10;2.25;;;1.55;;
253;SDS011;590;48.772;8.846;2024-01-06T06:39:39;1.95;;;1.55;;
253;SDS011;590;48.772;8.846;2024-01-06T06:42:08;2.05;;;1.80;;
253;SDS011;590;48.772;8.846;2024-01-06T06:44:36;1.80;;;1.70;;
253;SDS011;590;48.772;8.846;2024-01-06T06:47:05;1.88;;;1.50;;
253;SDS011;590;48.772;8.846;2024-01-06T06:49:33;1.80;;;1.70;;
253;SDS011;590;48.772;8.846;2024-01-06T06:52:01;2.20;;;2.05;;
253;SDS011;590;48.772;8.846;2024-01-06T06:54:30;3.30;;;3.10;;
253;SDS011;590;48.772;8.846;2024-01-06T06:56:58;5.38;;;5.10;;
253;SDS011;590;48.772;8.846;2024-01-06T06:59:28;8.77;;;8.13;;
253;SDS011;590;48.772;8.846;2024-01-06T07:01:56;11.13;;;10.52;;
253;SDS011;590;48.772;8.846;2024-01-06T07:04:24;12.82;;;11.40;;
253;SDS011;590;48.772;8.846;2024-01-06T07:06:53;10.48;;;9.90;;
253;SDS011;590;48.772;8.846;2024-01-06T07:09:21;6.13;;;5.80;;
253;SDS011;590;48.772;8.846;2024-01-06T07:11:51;4.63;;;4.38;;
253;SDS011;590;48.772;8.846;2024-01-06T07:14:19;4.95;;;4.30;;
253;SDS011;590;48.772;8.846;2024-01-06T07:16:48;3.20;;;2.67;;
253;SDS011;590;48.772;8.846;2024-01-06T07:19:16;3.85;;;3.65;;
253;SDS011;590;48.772;8.846;2024-01-06T07:21:44;4.75;;;4.45;;
253;SDS011;590;48.772;8.846;2024-01-06T07:24:13;3.50;;;3.30;;
253;SDS011;590;48.772;8.846;2024-01-06T07:26:44;3.85;;;3.65;;
253;SDS011;590;48.772;8.846;2024-01-06T07:29:12;3.40;;;3.22;;
253;SDS011;590;48.772;8.846;2024-01-06T07:31:40;2.63;;;2.45;;
253;SDS011;590;48.772;8.846;2024-01-06T07:34:09;3.67;;;3.47;;
253;SDS011;590;48.772;8.846;2024-01-06T07:36:37;4.22;;;3.97;;
253;SDS011;590;48.772;8.846;2024-01-06T07:39:06;3.45;;;3.25;;
253;SDS011;590;48.772;8.846;2024-01-06T07:41:34;2.60;;;2.40;;
253;SDS011;590;48.772;8.846;2024-01-06T07:44:02;3.03;;;2.83;;
253;SDS011;590;48.772;8.846;2024-01-06T07:46:31;3.15;;;3.00;;
253;SDS011;590;48.772;8.846;2024-01-06T07:48:59;3.35;;;3.15;;
253;SDS011;590;48.772;8.846;2024-01-06T07:51:29;3.30;;;3.10;;
253;SDS011;590;48.772;8.846;2024-01-06T07:53:57;2.95;;;2.75;;
253;SDS011;590;48.772;8.846;2024-01-06T07:56:25;2.60;;;2.40;;
253;SDS011;590;48.772;8.846;2024-01-06T07:58:53;3.85;;;3.65;;
253;SDS011;590;48.772;8.846;2024-01-06T08:01:21;3.80;;;3.60;;
253;SDS011;590;48.772;8.846;2024-01-06T08:03:49;2.40;;;2.20;;
253;SDS011;590;48.772;8.846;2024-01-06T08:06:18;1.90;;;1.80;;
253;SDS011;590;48.772;8.846;2024-01-06T08:08:47;1.73;;;1.63;;
253;SDS011;590;48.772;8.846;2024-01-06T08:11:15;2.25;;;1.80;;
253;SDS011;590;48.772;8.846;2024-01-06T08:13:43;2.90;;;1.30;;
253;SDS011;590;48.772;8.846;2024-01-06T08:16:11;3.33;;;1.70;;
253;SDS011;590;48.772;8.846;2024-01-06T08:18:40;1.23;;;1.00;;
253;SDS011;590;48.772;8.846;2024-01-06T08:21:08;1.20;;;1.10;;
253;SDS011;590;48.772;8.846;2024-01-06T08:23:36;1.63;;;1.55;;
253;SDS011;590;48.772;8.846;2024-01-06T08:26:05;1.85;;;1.75;;
253;SDS011;590;48.772;8.846;2024-01-06T08:28:36;1.55;;;1.40;;
253;SDS011;590;48.772;8.846;2024-01-06T08:31:04;1.13;;;1.10;;
253;SDS011;590;48.772;8.846;2024-01-06T08:33:33;1.63;;;1.45;;
253;SDS011;590;48.772;8.846;2024-01-06T08:36:01;2.97;;;1.38;;
253;SDS011;590;48.772;8.846;2024-01-06T08:38:29;1.38;;;1.30;;
253;SDS011;590;48.772;8.846;2024-01-06T08:40:57;1.25;;;1.15;;
253;SDS011;590;48.772;8.846;2024-01-06T08:43:26;1.70;;;1.60;;
253;SDS011;590;48.772;8.846;2024-01-06T08:45:54;3.75;;;2.20;;
253;SDS011;590;48.772;8.846;2024-01-06T08:48:23;2.28;;;1.20;;
253;SDS011;590;48.772;8.846;2024-01-06T08:50:51;1.63;;;1.33;;
253;SDS011;590;48.772;8.846;2024-01-06T08:53:19;2.00;;;1.90;;
253;SDS011;590;48.772;8.846;2024-01-06T08:55:47;1.37;;;1.30;;
253;SDS011;590;48.772;8.846;2024-01-06T08:58:16;1.02;;;0.98;;
253;SDS011;590;48.772;8.846;2024-01-06T09:00:46;1.33;;;1.20;;
253;SDS011;590;48.772;8.846;2024-01-06T09:03:14;1.02;;;0.73;;
253;SDS011;590;48.772;8.846;2024-01-06T09:05:42;1.17;;;0.90;;
253;SDS011;590;48.772;8.846;2024-01-06T09:08:10;1.23;;;1.10;;
253;SDS011;590;48.772;8.846;2024-01-06T09:10:38;0.80;;;0.75;;
253;SDS011;590;48.772;8.846;2024-01-06T09:13:06;1.80;;;1.00;;
253;SDS011;590;48.772;8.846;2024-01-06T09:15:34;1.10;;;1.00;;
253;SDS011;590;48.772;8.846;2024-01-06T09:18:04;1.10;;;1.00;;
253;SDS011;590;48.772;8.846;2024-01-06T09:20:32;2.58;;;1.23;;
253;SDS011;590;48.772;8.846;2024-01-06T09:23:00;0.90;;;0.82;;
253;SDS011;590;48.772;8.846;2024-01-06T09:25:28;0.98;;;0.90;;
253;SDS011;590;48.772;8.846;2024-01-06T09:27:56;1.13;;;0.80;;
253;SDS011;590;48.772;8.846;2024-01-06T09:30:26;1.35;;;0.95;;
253;SDS011;590;48.772;8.846;2024-01-06T09:32:54;1.05;;;0.80;;
253;SDS011;590;48.772;8.846;2024-01-06T09:35:23;0.98;;;0.82;;
253;SDS011;590;48.772;8.846;2024-01-06T09:37:51;1.25;;;0.70;;
253;SDS011;590;48.772;8.846;2024-01-06T09:40:20;0.60;;;0.60;;
253;SDS011;590;48.772;8.846;2024-01-06T09:42:50;0.90;;;0.90;;
253;SDS011;590;48.772;8.846;2024-01-06T09:45:18;1.15;;;1.05;;
253;SDS011;590;48.772;8.846;2024-01-06T09:47:48;1.10;;;0.82;;
253;SDS011;590;48.772;8.846;2024-01-06T09:50:18;0.90;;;0.80;;
253;SDS011;590;48.772;8.846;2024-01-06T09:52:48;0.93;;;0.80;;
253;SDS011;590;48.772;8.846;2024-01-06T09:55:22;0.70;;;0.70;;
253;SDS011;590;48.772;8.846;2024-01-06T09:57:53;1.02;;;0.82;;
253;SDS011;590;48.772;8.846;2024-01-06T10:00:21;0.95;;;0.85;;
253;SDS011;590;48.772;8.846;2024-01-06T10:02:49;0.90;;;0.80;;
253;SDS011;590;48.772;8.846;2024-01-06T10:05:18;1.02;;;0.93;;
253;SDS011;590;48.772;8.846;2024-01-06T10:07:48;1.23;;;0.80;;
253;SDS011;590;48.772;8.846;2024-01-06T10:10:16;1.42;;;1.10;;
253;SDS011;590;48.772;8.846;2024-01-06T10:12:46;0.70;;;0.70;;
253;SDS011;590;48.772;8.846;2024-01-06T10:15:17;1.00;;;0.63;;
253;SDS011;590;48.772;8.846;2024-01-06T10:17:47;0.77;;;0.70;;
253;SDS011;590;48.772;8.846;2024-01-06T10:20:16;1.23;;;0.60;;
253;SDS011;590;48.772;8.846;2024-01-06T10:22:46;0.70;;;0.70;;
253;SDS011;590;48.772;8.846;2024-01-06T10:25:15;2.25;;;1.95;;
253;SDS011;590;48.772;8.846;2024-01-06T10:27:43;1.10;;;1.00;;
253;SDS011;590;48.772;8.846;2024-01-06T10:30:12;1.30;;;1.25;;
253;SDS011;590;48.772;8.846;2024-01-06T10:32:44;1.27;;;1.15;;
253;SDS011;590;48.772;8.846;2024-01-06T10:35:12;1.17;;;1.08;;
253;SDS011;590;48.772;8.846;2024-01-06T10:37:41;0.85;;;0.75;;
253;SDS011;590;48.772;8.846;2024-01-06T10:40:10;0.80;;;0.70;;
253;SDS011;590;48.772;8.846;2024-01-06T10:42:41;0.95;;;0.85;;
253;SDS011;590;48.772;8.846;2024-01-06T10:45:10;0.80;;;0.75;;
253;SDS011;590;48.772;8.846;2024-01-06T10:47:40;2.20;;;2.00;;
253;SDS011;590;48.772;8.846;2024-01-06T10:50:10;1.70;;;1.60;;
253;SDS011;590;48.772;8.846;2024-01-06T10:52:39;1.75;;;1.65;;
253;SDS011;590;48.772;8.846;2024-01-06T10:55:08;2.30;;;2.10;;
253;SDS011;590;48.772;8.846;2024-01-06T10:57:37;2.55;;;2.35;;
253;SDS011;590;48.772;8.846;2024-01-06T11:00:09;1.23;;;1.13;;
253;SDS011;590;48.772;8.846;2024-01-06T11:02:39;0.90;;;0.82;;
253;SDS011;590;48.772;8.846;2024-01-06T11:05:08;1.13;;;1.02;;
253;SDS011;590;48.772;8.846;2024-01-06T11:07:37;1.67;;;1.58;;
253;SDS011;590;48.772;8.846;2024-01-06T11:10:10;2.00;;;1.90;;
253;SDS011;590;48.772;8.846;2024-01-06T11:12:43;2.65;;;2.45;;
253;SDS011;590;48.772;8.846;2024-01-06T11:18:09;3.63;;;3.42;;
253;SDS011;590;48.772;8.846;2024-01-06T11:23:45;1.27;;;1.17;;
253;SDS011;590;48.772;8.846;2024-01-06T11:26:14;2.20;;;1.33;;
253;SDS011;590;48.772;8.846;2024-01-06T11:28:45;1.48;;;1.40;;
253;SDS011;590;48.772;8.846;2024-01-06T11:31:15;3.25;;;2.20;;
253;SDS011;590;48.772;8.846;2024-01-06T11:33:43;1.10;;;0.80;;
253;SDS011;590;48.772;8.846;2024-01-06T11:36:14;1.27;;;1.23;;
253;SDS011;590;48.772;8.846;2024-01-06T11:38:42;1.40;;;1.08;;
253;SDS011;590;48.772;8.846;2024-01-06T11:44:17;1.05;;;0.95;;
253;SDS011;590;48.772;8.846;2024-01-06T11:46:47;1.30;;;1.25;;
253;SDS011;590;48.772;8.846;2024-01-06T11:49:16;1.90;;;1.80;;
253;SDS011;590;48.772;8.846;2024-01-06T11:51:45;1.80;;;1.70;;
253;SDS011;590;48.772;8.846;2024-01-06T11:54:13;1.77;;;1.67;;
253;SDS011;590;48.772;8.846;2024-01-06T11:56:43;1.53;;;1.43;;
253;SDS011;590;48.772;8.846;2024-01-06T11:59:11;2.15;;;1.98;;
253;SDS011;590;48.772;8.846;2024-01-06T12:01:40;1.90;;;1.80;;
253;SDS011;590;48.772;8.846;2024-01-06T12:04:10;1.60;;;1.53;;
253;SDS011;590;48.772;8.846;2024-01-06T12:06:44;2.13;;;1.60;;
253;SDS011;590;48.772;8.846;2024-01-06T12:09:12;1.73;;;1.63;;
253;SDS011;590;48.772;8.846;2024-01-06T12:11:42;3.60;;;3.40;;
253;SDS011;590;48.772;8.846;2024-01-06T12:14:13;2.65;;;2.20;;
253;SDS011;590;48.772;8.846;2024-01-06T12:16:43;1.63;;;1.52;;
253;SDS011;590;48.772;8.846;2024-01-06T12:19:12;1.17;;;1.10;;
253;SDS011;590;48.772;8.846;2024-01-06T12:21:41;2.40;;;2.20;;
253;SDS011;590;48.772;8.846;2024-01-06T12:24:12;2.40;;;2.20;;
253;SDS011;590;48.772;8.846;2024-01-06T12:26:47;2.83;;;2.63;;
253;SDS011;590;48.772;8.846;2024-01-06T12:29:17;8.15;;;7.75;;
253;SDS011;590;48.772;8.846;2024-01-06T12:31:46;5.23;;;4.93;;
253;SDS011;590;48.772;8.846;2024-01-06T12:34:17;1.87;;;1.70;;
253;SDS011;590;48.772;8.846;2024-01-06T12:36:46;1.83;;;1.73;;
253;SDS011;590;48.772;8.846;2024-01-06T12:39:14;1.95;;;1.70;;
253;SDS011;590;48.772;8.846;2024-01-06T12:41:43;2.05;;;1.92;;
253;SDS011;590;48.772;8.846;2024-01-06T12:44:11;5.10;;;4.80;;
253;SDS011;590;48.772;8.846;2024-01-06T12:46:39;2.83;;;2.65;;
253;SDS011;590;48.772;8.846;2024-01-06T12:49:08;2.85;;;2.65;;
253;SDS011;590;48.772;8.846;2024-01-06T12:51:38;3.13;;;2.92;;
253;SDS011;590;48.772;8.846;2024-01-06T12:54:06;2.22;;;2.03;;
253;SDS011;590;48.772;8.846;2024-01-06T12:56:34;3.17;;;3.00;;
253;SDS011;590;48.772;8.846;2024-01-06T12:59:02;2.17;;;1.98;;
253;SDS011;590;48.772;8.846;2024-01-06T13:01:30;2.63;;;2.42;;
253;SDS011;590;48.772;8.846;2024-01-06T13:03:58;1.77;;;1.67;;
253;SDS011;590;48.772;8.846;2024-01-06T13:06:27;1.83;;;1.63;;
253;SDS011;590;48.772;8.846;2024-01-06T13:08:58;1.80;;;1.70;;
253;SDS011;590;48.772;8.846;2024-01-06T13:11:28;1.95;;;1.85;;
253;SDS011;590;48.772;8.846;2024-01-06T13:13:56;1.98;;;1.88;;
253;SDS011;590;48.772;8.846;2024-01-06T13:16:24;4.75;;;2.50;;
253;SDS011;590;48.772;8.846;2024-01-06T13:18:52;1.20;;;1.10;;
253;SDS011;590;48.772;8.846;2024-01-06T13:21:21;1.70;;;1.60;;
253;SDS011;590;48.772;8.846;2024-01-06T13:23:50;1.75;;;1.65;;
253;SDS011;590;48.772;8.846;2024-01-06T13:26:20;2.00;;;1.90;;
253;SDS011;590;48.772;8.846;2024-01-06T13:28:48;1.50;;;1.40;;
253;SDS011;590;48.772;8.846;2024-01-06T13:31:16;1.80;;;1.70;;
253;SDS011;590;48.772;8.846;2024-01-06T13:33:45;1.75;;;1.65;;
253;SDS011;590;48.772;8.846;2024-01-06T13:36:14;1.75;;;1.65;;
253;SDS011;590;48.772;8.846;2024-01-06T13:38:44;1.45;;;1.30;;
253;SDS011;590;48.772;8.846;2024-01-06T13:41:12;1.35;;;1.30;;
253;SDS011;590;48.772;8.846;2024-01-06T13:43:41;1.70;;;1.60;;
253;SDS011;590;48.772;8.846;2024-01-06T13:46:10;2.55;;;2.35;;
253;SDS011;590;48.772;8.846;2024-01-06T13:48:40;2.65;;;2.45;;
253;SDS011;590;48.772;8.846;2024-01-06T13:51:08;4.60;;;4.30;;
253;SDS011;590;48.772;8.846;2024-01-06T13:53:36;5.03;;;4.67;;
253;SDS011;590;48.772;8.846;2024-01-06T13:56:05;5.05;;;4.75;;
253;SDS011;590;48.772;8.846;2024-01-06T13:58:33;17.25;;;14.38;;
253;SDS011;590;48.772;8.846;2024-01-06T14:01:04;18.83;;;13.43;;
253;SDS011;590;48.772;8.846;2024-01-06T14:03:35;5.95;;;4.95;;
253;SDS011;590;48.772;8.846;2024-01-06T14:06:03;2.53;;;2.33;;
253;SDS011;590;48.772;8.846;2024-01-06T14:08:32;2.00;;;1.90;;
253;SDS011;590;48.772;8.846;2024-01-06T14:11:01;2.20;;;2.00;;
253;SDS011;590;48.772;8.846;2024-01-06T14:13:29;2.05;;;1.92;;
253;SDS011;590;48.772;8.846;2024-01-06T14:15:59;1.63;;;1.52;;
253;SDS011;590;48.772;8.846;2024-01-06T14:18:29;2.10;;;1.95;;
253;SDS011;590;48.772;8.846;2024-01-06T14:20:57;1.40;;;1.30;;
253;SDS011;590;48.772;8.846;2024-01-06T14:23:25;1.70;;;1.60;;
253;SDS011;590;48.772;8.846;2024-01-06T14:25:56;1.95;;;1.60;;
253;SDS011;590;48.772;8.846;2024-01-06T14:28:24;1.73;;;1.58;;
253;SDS011;590;48.772;8.846;2024-01-06T14:30:52;1.83;;;1.73;;
253;SDS011;590;48.772;8.846;2024-01-06T14:33:20;1.30;;;1.20;;
253;SDS011;590;48.772;8.846;2024-01-06T14:35:50;1.60;;;1.50;;
253;SDS011;590;48.772;8.846;2024-01-06T14:38:18;2.45;;;2.25;;
253;SDS011;590;48.772;8.846;2024-01-06T14:40:46;2.78;;;2.58;;
253;SDS011;590;48.772;8.846;2024-01-06T14:43:14;1.55;;;1.45;;
253;SDS011;590;48.772;8.846;2024-01-06T14:45:42;1.50;;;1.40;;
253;SDS011;590;48.772;8.846;2024-01-06T14:48:10;2.10;;;1.95;;
253;SDS011;590;48.772;8.846;2024-01-06T14:50:38;2.40;;;2.20;;
253;SDS011;590;48.772;8.846;2024-01-06T14:53:08;2.05;;;1.92;;
253;SDS011;590;48.772;8.846;2024-01-06T14:55:37;3.70;;;3.50;;
253;SDS011;590;48.772;8.846;2024-01-06T14:58:05;7.30;;;6.90;;
253;SDS011;590;48.772;8.846;2024-01-06T15:00:35;5.50;;;5.20;;
253;SDS011;590;48.772;8.846;2024-01-06T15:03:04;6.20;;;5.90;;
253;SDS011;590;48.772;8.846;2024-01-06T15:05:32;3.33;;;3.13;;
253;SDS011;590;48.772;8.846;2024-01-06T15:08:00;3.42;;;3.22;;
253;SDS011;590;48.772;8.846;2024-01-06T15:10:29;4.70;;;4.40;;
253;SDS011;590;48.772;8.846;2024-01-06T15:12:57;4.68;;;4.15;;
253;SDS011;590;48.772;8.846;2024-01-06T15:15:26;4.13;;;3.90;;
253;SDS011;590;48.772;8.846;2024-01-06T15:17:54;4.35;;;4.07;;
253;SDS011;590;48.772;8.846;2024-01-06T15:20:22;3.70;;;3.50;;
253;SDS011;590;48.772;8.846;2024-01-06T15:22:50;3.95;;;3.75;;
253;SDS011;590;48.772;8.846;2024-01-06T15:25:18;4.63;;;4.32;;
253;SDS011;590;48.772;8.846;2024-01-06T15:27:47;4.30;;;4.00;;
253;SDS011;590;48.772;8.846;2024-01-06T15:30:15;4.65;;;3.70;;
253;SDS011;590;48.772;8.846;2024-01-06T15:32:45;4.88;;;3.72;;
253;SDS011;590;48.772;8.846;2024-01-06T15:35:15;4.00;;;3.80;;
253;SDS011;590;48.772;8.846;2024-01-06T15:37:45;3.90;;;3.70;;
253;SDS011;590;48.772;8.846;2024-01-06T15:40:13;3.92;;;3.72;;
253;SDS011;590;48.772;8.846;2024-01-06T15:42:42;5.07;;;4.80;;
253;SDS011;590;48.772;8.846;2024-01-06T15:45:15;6.78;;;6.38;;
253;SDS011;590;48.772;8.846;2024-01-06T15:47:43;6.20;;;5.88;;
253;SDS011;590;48.772;8.846;2024-01-06T15:50:12;5.07;;;4.78;;
253;SDS011;590;48.772;8.846;2024-01-06T15:52:41;5.90;;;5.60;;
253;SDS011;590;48.772;8.846;2024-01-06T15:55:12;5.10;;;4.80;;
253;SDS011;590;48.772;8.846;2024-01-06T15:57:40;4.15;;;3.92;;
253;SDS011;590;48.772;8.846;2024-01-06T16:00:10;3.83;;;3.63;;
253;SDS011;590;48.772;8.846;2024-01-06T16:02:40;5.50;;;5.20;;